Bexar, Arkansas
Current Conditions -  °F | °C
As of 8:53 PM on Friday 24 Oct 2014 (Local Time) from KBPK Reporting Station
Clear Clear  
Wind Chill: 62°   Ceiling: Unl
Heat Index: 62°   Visibility: 9mi
Dew Point: 58°   Wind: 5mph
Humidity: 86%   Direction: 170°S
Pressure: 30.06"   Gusts: NA
Location:  36.29°N, 92°W
Report Text: KBPK 250153Z AUTO 17004KT 9SM CLR 17/14 A3006 RMK AO2 SLP176 T01670144
Loading
Personal Weather Stations






























Interactive Weather Map New forecast layout! Learn more

10-Day Weather Forecast

Advertisements
Track Severe Weather on mobile